createdAt,value
2018-12-17T00:00:24.238Z,99.99
2018-12-17T00:01:24.226Z,99.99
2018-12-17T00:02:24.214Z,99.99
2018-12-17T00:03:24.262Z,99.99
2018-12-17T00:04:24.194Z,99.99
2018-12-17T00:05:24.182Z,99.99
2018-12-17T00:06:24.171Z,99.99
2018-12-17T00:07:24.158Z,99.99
2018-12-17T00:08:24.151Z,99.99
2018-12-17T00:09:24.415Z,99.99
2018-12-17T00:10:24.127Z,99.99
2018-12-17T00:11:24.116Z,99.99
2018-12-17T00:12:24.102Z,99.99
2018-12-17T00:13:24.097Z,99.99
2018-12-17T00:14:24.086Z,99.99
2018-12-17T00:15:24.115Z,99.99
2018-12-17T00:16:24.061Z,99.99
2018-12-17T00:17:24.047Z,99.99
2018-12-17T00:18:24.038Z,99.99
2018-12-17T00:19:24.026Z,99.99
2018-12-17T00:20:24.015Z,99.99
2018-12-17T00:21:24.086Z,99.99
2018-12-17T00:22:23.994Z,99.99
2018-12-17T00:23:23.986Z,99.99
2018-12-17T00:24:23.970Z,99.99
2018-12-17T00:25:23.958Z,99.99
2018-12-17T00:26:23.952Z,99.99
2018-12-17T00:27:23.965Z,99.99
2018-12-17T00:28:23.927Z,99.99
2018-12-17T00:29:23.914Z,99.99
2018-12-17T00:30:23.903Z,99.99
2018-12-17T00:31:23.891Z,99.99
2018-12-17T00:32:23.907Z,99.99
2018-12-17T00:33:23.895Z,99.99
2018-12-17T00:34:23.861Z,99.99
2018-12-17T00:35:23.846Z,99.99
2018-12-17T00:36:23.834Z,99.99
2018-12-17T00:37:23.827Z,99.99
2018-12-17T00:38:23.847Z,99.99
2018-12-17T00:39:23.807Z,99.99
2018-12-17T00:40:23.791Z,99.99
2018-12-17T00:41:23.783Z,99.99
2018-12-17T00:42:23.771Z,99.99
2018-12-17T00:43:23.764Z,99.99
2018-12-17T00:44:23.791Z,99.99
2018-12-17T00:45:23.739Z,99.99
2018-12-17T00:46:23.727Z,99.99
2018-12-17T00:47:23.715Z,99.99
2018-12-17T00:48:23.703Z,99.99
2018-12-17T00:49:23.727Z,99.99
2018-12-17T00:50:23.716Z,99.99
2018-12-17T00:51:23.671Z,99.99
2018-12-17T00:52:23.664Z,99.99
2018-12-17T00:53:23.651Z,99.99
2018-12-17T00:54:23.635Z,99.99
2018-12-17T00:55:23.643Z,99.99
2018-12-17T00:56:23.662Z,99.99
2018-12-17T00:57:23.603Z,99.99
2018-12-17T00:58:23.590Z,99.99
2018-12-17T00:59:23.582Z,99.99
2018-12-17T01:00:23.574Z,99.99
2018-12-17T01:01:23.559Z,99.99
2018-12-17T01:02:23.587Z,99.99
2018-12-17T01:03:23.543Z,99.99
2018-12-17T01:04:23.527Z,99.99
2018-12-17T01:05:23.515Z,99.99
2018-12-17T01:06:23.502Z,99.99
2018-12-17T01:07:23.519Z,99.99
2018-12-17T01:08:23.479Z,99.99
2018-12-17T01:09:23.496Z,99.99
2018-12-17T01:10:23.459Z,99.99
2018-12-17T01:11:23.450Z,99.99
2018-12-17T01:12:23.439Z,99.99
2018-12-17T01:13:23.439Z,99.99
2018-12-17T01:14:23.415Z,99.99
2018-12-17T01:15:23.414Z,99.99
2018-12-17T01:16:23.393Z,99.99
2018-12-17T01:17:23.395Z,99.99
2018-12-17T01:18:23.371Z,99.99
2018-12-17T01:19:23.370Z,99.99
2018-12-17T01:20:23.358Z,99.99
2018-12-17T01:21:23.361Z,99.99
2018-12-17T01:22:23.322Z,99.99
2018-12-17T01:23:23.315Z,99.99
2018-12-17T01:24:23.323Z,99.99
2018-12-17T01:25:23.292Z,99.99
2018-12-17T01:26:23.280Z,99.99
2018-12-17T01:27:23.299Z,99.99
2018-12-17T01:28:23.282Z,99.99
2018-12-17T01:29:23.246Z,99.99
2018-12-17T01:30:23.235Z,99.99
2018-12-17T01:31:23.222Z,99.99
2018-12-17T01:32:23.211Z,99.99
2018-12-17T01:33:23.227Z,99.99
2018-12-17T01:34:23.208Z,99.99
2018-12-17T01:35:23.179Z,99.99
2018-12-17T01:36:23.170Z,99.59
2018-12-17T01:37:23.158Z,99.80
2018-12-17T01:38:23.147Z,99.74
2018-12-17T01:39:23.175Z,99.84
2018-12-17T01:40:23.138Z,99.99
2018-12-17T01:41:23.112Z,99.59
2018-12-17T01:42:23.103Z,99.84
2018-12-17T01:43:23.090Z,99.38
2018-12-17T01:44:23.079Z,99.53
2018-12-17T01:45:23.099Z,99.07
2018-12-17T01:46:23.059Z,99.43
2018-12-17T01:47:23.047Z,99.11
2018-12-17T01:48:23.035Z,99.69
2018-12-17T01:49:23.027Z,99.38
2018-12-17T01:50:23.010Z,99.63
2018-12-17T01:51:23.035Z,99.17
2018-12-17T01:52:22.994Z,98.59
2018-12-17T01:53:22.978Z,98.86
2018-12-17T01:54:22.968Z,98.96
2018-12-17T01:55:22.954Z,99.07
2018-12-17T01:56:22.962Z,98.86
2018-12-17T01:57:22.970Z,99.11
2018-12-17T01:58:29.044Z,98.86
2018-12-17T01:59:23.910Z,98.86
2018-12-17T02:00:22.902Z,98.96
2018-12-17T02:01:22.890Z,98.55
2018-12-17T02:02:22.892Z,98.38
2018-12-17T02:03:22.890Z,98.59
2018-12-17T02:04:22.862Z,98.44
2018-12-17T02:05:22.850Z,98.96
2018-12-17T02:06:22.834Z,98.96
2018-12-17T02:07:22.838Z,98.65
2018-12-17T02:08:22.815Z,98.59
2018-12-17T02:09:22.818Z,98.55
2018-12-17T02:10:22.790Z,98.65
2018-12-17T02:11:22.778Z,98.65
2018-12-17T02:12:22.766Z,98.65
2018-12-17T02:13:22.770Z,98.55
2018-12-17T02:14:22.742Z,98.75
2018-12-17T02:15:22.780Z,98.75
2018-12-17T02:16:22.723Z,98.86
2018-12-17T02:17:22.710Z,99.07
2018-12-17T02:18:22.723Z,98.86
2018-12-17T02:19:22.698Z,98.65
2018-12-17T02:20:22.694Z,98.75
2018-12-17T02:21:22.731Z,98.86
2018-12-17T02:22:22.658Z,98.65
2018-12-17T02:23:22.659Z,98.55
2018-12-17T02:24:22.634Z,98.86
2018-12-17T02:25:22.624Z,98.65
2018-12-17T02:26:22.622Z,98.75
2018-12-17T02:27:22.630Z,99.07
2018-12-17T02:28:22.593Z,99.07
2018-12-17T02:29:22.579Z,98.65
2018-12-17T02:30:22.572Z,98.65
2018-12-17T02:31:22.583Z,98.55
2018-12-17T02:32:22.546Z,98.96
2018-12-17T02:33:22.550Z,98.65
2018-12-17T02:34:22.527Z,99.07
2018-12-17T02:35:24.939Z,98.96
2018-12-17T02:36:22.503Z,98.55
2018-12-17T02:37:22.515Z,98.75
2018-12-17T02:38:22.490Z,98.02
2018-12-17T02:39:22.474Z,98.75
2018-12-17T02:40:22.454Z,98.65
2018-12-17T02:41:22.443Z,98.75
2018-12-17T02:42:22.437Z,99.17
2018-12-17T02:43:22.437Z,98.96
2018-12-17T02:44:22.410Z,99.07
2018-12-17T02:45:22.523Z,99.07
2018-12-17T02:46:22.385Z,98.86
2018-12-17T02:47:22.380Z,98.65
2018-12-17T02:48:22.366Z,98.23
2018-12-17T02:49:22.365Z,98.02
2018-12-17T02:50:22.346Z,98.13
2018-12-17T02:51:22.345Z,98.23
2018-12-17T02:52:22.393Z,98.13
2018-12-17T02:53:22.310Z,98.34
2018-12-17T02:54:22.314Z,98.13
2018-12-17T02:55:22.291Z,98.13
2018-12-17T02:56:22.278Z,98.44
2018-12-17T02:57:22.294Z,98.55
2018-12-17T02:58:22.253Z,98.65
2018-12-17T02:59:22.257Z,98.65
2018-12-17T03:00:22.234Z,98.86
2018-12-17T03:01:22.222Z,98.65
2018-12-17T03:02:22.210Z,99.07
2018-12-17T03:03:22.222Z,98.75
2018-12-17T03:04:22.197Z,99.07
2018-12-17T03:05:22.190Z,98.75
2018-12-17T03:06:22.165Z,98.65
2018-12-17T03:07:22.153Z,98.75
2018-12-17T03:08:22.141Z,98.59
2018-12-17T03:09:22.146Z,98.86
2018-12-17T03:10:22.148Z,98.69
2018-12-17T03:11:22.113Z,98.18
2018-12-17T03:12:22.101Z,98.28
2018-12-17T03:13:22.085Z,97.97
2018-12-17T03:14:22.078Z,98.38
2018-12-17T03:15:22.097Z,98.18
2018-12-17T03:16:22.065Z,98.63
2018-12-17T03:17:22.049Z,98.95
2018-12-17T03:18:22.037Z,98.85
2018-12-17T03:19:22.024Z,99.26
2018-12-17T03:20:22.010Z,99.89
2018-12-17T03:21:22.026Z,99.89
2018-12-17T03:22:21.985Z,99.99
2018-12-17T03:23:21.978Z,99.99
2018-12-17T03:24:21.968Z,99.99
2018-12-17T03:25:21.960Z,99.99
2018-12-17T03:26:21.945Z,99.99
2018-12-17T03:27:21.975Z,99.99
2018-12-17T03:28:21.927Z,99.99
2018-12-17T03:29:21.910Z,99.99
2018-12-17T03:30:21.916Z,99.99
2018-12-17T03:31:21.886Z,99.99
2018-12-17T03:32:21.875Z,99.99
2018-12-17T03:33:21.905Z,99.99
2018-12-17T03:34:21.853Z,99.99
2018-12-17T03:35:21.842Z,99.99
2018-12-17T03:36:21.831Z,99.99
2018-12-17T03:37:21.822Z,99.99
2018-12-17T03:38:21.814Z,99.90
2018-12-17T03:39:21.822Z,99.99
2018-12-17T03:40:21.815Z,99.99
2018-12-17T03:41:21.775Z,99.99
2018-12-17T03:42:21.766Z,99.99
2018-12-17T03:43:21.753Z,99.99
2018-12-17T03:44:21.742Z,99.99
2018-12-17T03:45:21.750Z,99.99
2018-12-17T03:46:21.746Z,99.99
2018-12-17T03:47:21.710Z,99.99
2018-12-17T03:48:21.699Z,99.99
2018-12-17T03:49:21.686Z,99.99
2018-12-17T03:50:21.675Z,99.99
2018-12-17T03:51:21.682Z,99.48
2018-12-17T03:52:21.665Z,99.80
2018-12-17T03:53:21.643Z,99.59
2018-12-17T03:54:21.629Z,99.99
2018-12-17T03:55:21.619Z,99.90
2018-12-17T03:56:21.610Z,99.59
2018-12-17T03:57:21.658Z,99.59
2018-12-17T03:58:21.585Z,99.99
2018-12-17T03:59:21.573Z,99.80
2018-12-17T04:00:21.566Z,99.99
2018-12-17T04:01:21.554Z,99.99
2018-12-17T04:02:21.546Z,99.99
2018-12-17T04:03:22.270Z,99.99
2018-12-17T04:04:21.582Z,99.99
2018-12-17T04:05:21.606Z,99.99
2018-12-17T04:06:21.501Z,99.99
2018-12-17T04:07:21.486Z,99.99
2018-12-17T04:08:21.478Z,99.99
2018-12-17T04:09:21.494Z,99.99
2018-12-17T04:10:21.454Z,99.99
2018-12-17T04:11:21.446Z,99.99
2018-12-17T04:12:21.429Z,99.99
2018-12-17T04:13:21.417Z,99.99
2018-12-17T04:14:21.415Z,99.69
2018-12-17T04:15:21.441Z,99.99
2018-12-17T04:16:21.386Z,99.99
2018-12-17T04:17:21.373Z,99.99
2018-12-17T04:18:21.361Z,99.99
2018-12-17T04:19:21.353Z,99.99
2018-12-17T04:20:21.346Z,99.99
2018-12-17T04:21:21.385Z,99.99
2018-12-17T04:22:21.327Z,99.99
2018-12-17T04:23:21.309Z,99.99
2018-12-17T04:24:21.297Z,99.99
2018-12-17T04:25:21.285Z,99.99
2018-12-17T04:26:21.273Z,99.99
2018-12-17T04:27:21.289Z,99.59
2018-12-17T04:28:21.270Z,99.69
2018-12-17T04:29:21.242Z,99.80
2018-12-17T04:30:21.229Z,99.99
2018-12-17T04:31:21.217Z,99.99
2018-12-17T04:32:21.213Z,99.69
2018-12-17T04:33:21.232Z,99.80
2018-12-17T04:34:21.205Z,99.69
2018-12-17T04:35:21.174Z,99.80
2018-12-17T04:36:21.161Z,99.99
2018-12-17T04:37:21.154Z,99.80
2018-12-17T04:38:21.157Z,99.90
2018-12-17T04:39:21.157Z,99.99
2018-12-17T04:40:21.137Z,99.90
2018-12-17T04:41:21.105Z,99.99
2018-12-17T04:42:21.097Z,99.90
2018-12-17T04:43:21.088Z,99.69
2018-12-17T04:44:21.089Z,99.80
2018-12-17T04:45:21.061Z,99.84
2018-12-17T04:46:21.094Z,99.69
2018-12-17T04:47:21.042Z,99.80
2018-12-17T04:48:21.029Z,99.99
2018-12-17T04:49:21.017Z,99.80
2018-12-17T04:50:21.018Z,99.90
2018-12-17T04:51:21.017Z,99.99
2018-12-17T04:52:21.001Z,99.84
2018-12-17T04:53:20.973Z,99.95
2018-12-17T04:54:20.965Z,99.95
2018-12-17T04:55:20.962Z,99.48
2018-12-17T04:56:20.957Z,99.84
2018-12-17T04:57:20.929Z,99.59
2018-12-17T04:58:20.942Z,99.84
2018-12-17T04:59:20.905Z,99.99
2018-12-17T05:00:20.903Z,99.95
2018-12-17T05:01:20.885Z,99.74
2018-12-17T05:02:20.896Z,99.90
2018-12-17T05:03:20.861Z,99.95
2018-12-17T05:04:20.866Z,99.63
2018-12-17T05:05:20.845Z,99.74
2018-12-17T05:06:20.829Z,99.84
2018-12-17T05:07:20.827Z,99.99
2018-12-17T05:08:20.825Z,99.99
2018-12-17T05:09:20.797Z,99.99
2018-12-17T05:10:20.809Z,99.99
2018-12-17T05:11:20.778Z,99.99
2018-12-17T05:12:20.761Z,99.99
2018-12-17T05:13:20.769Z,99.99
2018-12-17T05:14:20.754Z,99.99
2018-12-17T05:15:20.734Z,99.99
2018-12-17T05:16:20.729Z,99.99
2018-12-17T05:17:20.784Z,99.99
2018-12-17T05:18:20.699Z,99.99
2018-12-17T05:19:20.686Z,99.90
2018-12-17T05:20:20.705Z,99.84
2018-12-17T05:21:20.673Z,99.99
2018-12-17T05:22:20.649Z,99.90
2018-12-17T05:23:20.643Z,99.99
2018-12-17T05:24:20.630Z,99.99
2018-12-17T05:25:20.619Z,99.99
2018-12-17T05:26:20.623Z,99.99
2018-12-17T05:27:20.633Z,99.99
2018-12-17T05:28:20.585Z,99.99
2018-12-17T05:29:21.715Z,99.99
2018-12-17T05:30:20.564Z,99.99
2018-12-17T05:31:20.554Z,99.99
2018-12-17T05:32:20.555Z,99.99
2018-12-17T05:33:20.546Z,99.99
2018-12-17T05:34:20.517Z,99.99
2018-12-17T05:35:20.509Z,99.99
2018-12-17T05:36:20.494Z,99.99
2018-12-17T05:37:20.497Z,99.99
2018-12-17T05:38:20.495Z,99.99
2018-12-17T05:39:20.486Z,99.99
2018-12-17T05:40:20.449Z,99.95
2018-12-17T05:41:20.437Z,99.99
2018-12-17T05:42:20.430Z,99.99
2018-12-17T05:43:20.434Z,99.95
2018-12-17T05:44:20.405Z,99.95
2018-12-17T05:45:20.418Z,99.99
2018-12-17T05:46:20.386Z,99.90
2018-12-17T05:47:20.374Z,99.99
2018-12-17T05:48:20.378Z,99.99
2018-12-17T05:49:20.352Z,99.99
2018-12-17T05:50:20.339Z,99.99
2018-12-17T05:51:20.338Z,99.59
2018-12-17T05:52:20.317Z,99.63
2018-12-17T05:53:20.309Z,99.53
2018-12-17T05:54:20.305Z,99.84
2018-12-17T05:55:20.293Z,99.99
2018-12-17T05:56:20.274Z,99.99
2018-12-17T05:57:20.290Z,99.99
2018-12-17T05:58:20.249Z,99.99
2018-12-17T05:59:20.239Z,99.99
2018-12-17T06:00:20.238Z,99.99
2018-12-17T06:01:20.233Z,99.99
2018-12-17T06:02:20.211Z,99.99
2018-12-17T06:03:20.213Z,99.99
2018-12-17T06:04:20.181Z,99.99
2018-12-17T06:05:20.171Z,99.99
2018-12-17T06:06:20.165Z,99.99
2018-12-17T06:07:20.170Z,99.99
2018-12-17T06:08:20.137Z,99.99
2018-12-17T06:09:20.146Z,99.99
2018-12-17T06:10:20.117Z,99.99
2018-12-17T06:11:20.105Z,99.99
2018-12-17T06:12:20.095Z,99.99
2018-12-17T06:13:20.105Z,99.99
2018-12-17T06:14:20.073Z,99.99
2018-12-17T06:15:20.070Z,99.99
2018-12-17T06:16:20.050Z,99.99
2018-12-17T06:17:20.037Z,99.99
2018-12-17T06:18:20.027Z,99.99
2018-12-17T06:19:20.025Z,99.99
2018-12-17T06:20:20.005Z,99.99
2018-12-17T06:21:20.012Z,99.99
2018-12-17T06:22:19.983Z,99.99
2018-12-17T06:23:19.969Z,99.99
2018-12-17T06:24:19.981Z,99.99
2018-12-17T06:25:19.954Z,99.99
2018-12-17T06:26:19.937Z,99.99
2018-12-17T06:27:19.934Z,99.99
2018-12-17T06:28:19.921Z,99.99
2018-12-17T06:29:19.905Z,99.99
2018-12-17T06:30:19.910Z,99.99
2018-12-17T06:31:19.882Z,99.99
2018-12-17T06:32:19.869Z,99.99
2018-12-17T06:33:19.867Z,99.71
2018-12-17T06:34:19.849Z,99.99
2018-12-17T06:35:19.842Z,99.99
2018-12-17T06:36:19.838Z,99.99
2018-12-17T06:37:19.829Z,99.99
2018-12-17T06:38:19.805Z,99.99
2018-12-17T06:39:19.810Z,99.99
2018-12-17T06:40:19.781Z,99.99
2018-12-17T06:41:19.769Z,99.99
2018-12-17T06:42:19.773Z,99.99
2018-12-17T06:43:19.749Z,99.91
2018-12-17T06:44:19.740Z,99.50
2018-12-17T06:45:19.745Z,99.55
2018-12-17T06:46:19.713Z,99.66
2018-12-17T06:47:19.709Z,99.66
2018-12-17T06:48:19.710Z,99.76
2018-12-17T06:49:19.681Z,99.35
2018-12-17T06:50:19.671Z,99.14
2018-12-17T06:51:19.673Z,99.04
2018-12-17T06:52:19.652Z,99.45
2018-12-17T06:53:19.641Z,99.14
2018-12-17T06:54:19.633Z,98.83
2018-12-17T06:55:19.617Z,99.04
2018-12-17T06:56:19.601Z,99.08
2018-12-17T06:57:19.597Z,98.62
2018-12-17T06:58:19.585Z,98.97
2018-12-17T06:59:19.589Z,99.29
2018-12-17T07:00:19.557Z,99.04
2018-12-17T07:01:19.546Z,99.24
2018-12-17T07:02:19.537Z,99.24
2018-12-17T07:03:19.526Z,99.24
2018-12-17T07:04:19.517Z,99.76
2018-12-17T07:05:19.524Z,99.81
2018-12-17T07:06:19.508Z,99.45
2018-12-17T07:07:19.480Z,99.76
2018-12-17T07:08:19.475Z,99.45
2018-12-17T07:09:19.457Z,99.35
2018-12-17T07:10:19.449Z,99.55
2018-12-17T07:11:19.447Z,99.55
2018-12-17T07:12:19.438Z,99.35
2018-12-17T07:13:19.413Z,99.24
2018-12-17T07:14:19.403Z,99.35
2018-12-17T07:15:19.394Z,98.93
2018-12-17T07:16:19.377Z,99.45
2018-12-17T07:17:19.390Z,98.99
2018-12-17T07:18:19.373Z,98.83
2018-12-17T07:19:19.345Z,98.72
2018-12-17T07:20:19.341Z,98.88
2018-12-17T07:21:19.329Z,98.26
2018-12-17T07:22:19.313Z,98.52
2018-12-17T07:23:19.311Z,98.47
2018-12-17T07:24:19.364Z,98.47
2018-12-17T07:25:19.285Z,98.88
2018-12-17T07:26:19.265Z,98.68
2018-12-17T07:27:19.257Z,99.10
2018-12-17T07:28:19.245Z,98.57
2018-12-17T07:29:19.277Z,97.95
2018-12-17T07:30:19.221Z,97.95
2018-12-17T07:31:19.215Z,97.95
2018-12-17T07:32:19.205Z,97.95
2018-12-17T07:33:19.189Z,98.16
2018-12-17T07:34:19.177Z,98.01
2018-12-17T07:35:19.198Z,97.74
2018-12-17T07:36:19.157Z,97.91
2018-12-17T07:37:19.146Z,97.95
2018-12-17T07:38:19.134Z,97.64
2018-12-17T07:39:19.121Z,97.91
2018-12-17T07:40:19.111Z,97.85
2018-12-17T07:41:19.130Z,97.85
2018-12-17T07:42:19.095Z,97.85
2018-12-17T07:43:19.078Z,98.05
2018-12-17T07:44:19.066Z,97.70
2018-12-17T07:45:19.061Z,97.85
2018-12-17T07:46:19.047Z,97.80
2018-12-17T07:47:19.066Z,97.59
2018-12-17T07:48:19.023Z,97.70
2018-12-17T07:49:19.012Z,97.59
2018-12-17T07:50:19.001Z,97.80
2018-12-17T07:51:18.990Z,97.59
2018-12-17T07:52:18.994Z,98.01
2018-12-17T07:53:18.974Z,97.75
2018-12-17T07:54:18.976Z,97.24
2018-12-17T07:55:18.942Z,97.75
2018-12-17T07:56:18.934Z,97.65
2018-12-17T07:57:18.922Z,97.65
2018-12-17T07:58:18.910Z,97.75
2018-12-17T07:59:18.918Z,97.65
2018-12-17T08:00:18.900Z,97.55
2018-12-17T08:01:18.891Z,97.55
2018-12-17T08:02:18.864Z,97.34
2018-12-17T08:03:18.856Z,97.24
2018-12-17T08:04:18.848Z,97.19
2018-12-17T08:05:18.848Z,96.98
2018-12-17T08:06:18.832Z,97.44
2018-12-17T08:07:18.812Z,97.55
2018-12-17T08:08:18.809Z,97.40
2018-12-17T08:09:18.788Z,97.09
2018-12-17T08:10:18.780Z,97.61
2018-12-17T08:11:18.780Z,97.44
2018-12-17T08:12:18.768Z,97.71
2018-12-17T08:13:18.744Z,97.81
2018-12-17T08:14:18.735Z,98.54
2018-12-17T08:15:18.720Z,98.65
2018-12-17T08:16:18.708Z,98.65
2018-12-17T08:17:18.705Z,98.44
2018-12-17T08:18:18.704Z,98.96
2018-12-17T08:19:18.676Z,99.37
2018-12-17T08:20:18.664Z,99.58
2018-12-17T08:21:18.653Z,99.37
2018-12-17T08:22:18.644Z,99.79
2018-12-17T08:23:18.652Z,99.79
2018-12-17T08:24:18.628Z,99.90
2018-12-17T08:25:18.609Z,99.99
2018-12-17T08:26:18.596Z,99.79
2018-12-17T08:27:18.590Z,99.68
2018-12-17T08:28:18.600Z,99.99
2018-12-17T08:29:18.564Z,99.85
2018-12-17T08:30:18.579Z,99.90
2018-12-17T08:31:18.547Z,99.99
2018-12-17T08:32:18.538Z,99.74
2018-12-17T08:33:18.520Z,99.95
2018-12-17T08:34:18.528Z,99.43
2018-12-17T08:35:18.497Z,99.22
2018-12-17T08:36:18.496Z,99.64
2018-12-17T08:37:18.475Z,99.54
2018-12-17T08:38:18.464Z,99.74
2018-12-17T08:39:18.460Z,99.64
2018-12-17T08:40:18.460Z,99.02
2018-12-17T08:41:18.435Z,98.81
2018-12-17T08:42:18.424Z,98.19
2018-12-17T08:43:18.411Z,98.71
2018-12-17T08:44:18.395Z,98.71
2018-12-17T08:45:18.388Z,98.29
2018-12-17T08:46:18.398Z,98.39
2018-12-17T08:47:18.364Z,98.39
2018-12-17T08:48:18.368Z,98.19
2018-12-17T08:49:18.348Z,98.29
2018-12-17T08:50:18.328Z,98.76
2018-12-17T08:51:18.316Z,98.76
2018-12-17T08:52:18.316Z,98.24
2018-12-17T08:53:18.297Z,98.14
2018-12-17T08:54:18.284Z,98.35
2018-12-17T08:55:18.277Z,98.24
2018-12-17T08:56:18.261Z,98.14
2018-12-17T08:57:18.289Z,98.24
2018-12-17T08:58:18.240Z,98.35
2018-12-17T08:59:18.228Z,98.35
2018-12-17T09:00:18.218Z,98.24
2018-12-17T09:01:18.216Z,98.14
2018-12-17T09:02:18.196Z,98.66
2018-12-17T09:03:18.200Z,98.45
2018-12-17T09:04:18.173Z,98.24
2018-12-17T09:05:18.161Z,98.35
2018-12-17T09:06:18.152Z,98.55
2018-12-17T09:07:18.148Z,98.55
2018-12-17T09:08:18.127Z,98.35
2018-12-17T09:09:18.136Z,98.14
2018-12-17T09:10:18.104Z,98.20
2018-12-17T09:11:18.096Z,98.24
2018-12-17T09:12:18.089Z,98.30
2018-12-17T09:13:18.083Z,98.51
2018-12-17T09:14:18.064Z,98.20
2018-12-17T09:15:18.068Z,97.68
2018-12-17T09:16:18.044Z,97.78
2018-12-17T09:17:18.028Z,97.68
2018-12-17T09:18:18.016Z,98.30
2018-12-17T09:19:32.528Z,98.41
2018-12-17T09:20:18.000Z,98.30
2018-12-17T09:21:18.000Z,98.57
2018-12-17T09:22:17.972Z,97.33
2018-12-17T09:23:17.959Z,97.64
2018-12-17T09:24:17.963Z,97.85
2018-12-17T09:25:17.938Z,97.64
2018-12-17T09:26:17.929Z,97.74
2018-12-17T09:27:17.935Z,97.85
2018-12-17T09:28:17.907Z,97.64
2018-12-17T09:29:17.900Z,97.33
2018-12-17T09:30:18.556Z,97.02
2018-12-17T09:31:17.871Z,97.33
2018-12-17T09:32:17.859Z,97.38
2018-12-17T09:33:17.859Z,97.43
2018-12-17T09:34:17.842Z,97.74
2018-12-17T09:35:17.832Z,97.64
2018-12-17T09:36:17.826Z,97.64
2018-12-17T09:37:17.808Z,97.49
2018-12-17T09:38:17.814Z,97.38
2018-12-17T09:39:17.785Z,97.38
2018-12-17T09:40:17.770Z,97.38
2018-12-17T09:41:17.763Z,97.59
2018-12-17T09:42:17.757Z,97.59
2018-12-17T09:43:17.735Z,97.28
2018-12-17T09:44:17.739Z,97.59
2018-12-17T09:45:17.714Z,97.38
2018-12-17T09:46:17.702Z,97.80
2018-12-17T09:47:17.695Z,97.59
2018-12-17T09:48:17.692Z,97.59
2018-12-17T09:49:17.687Z,97.38
2018-12-17T09:50:17.658Z,98.11
2018-12-17T09:51:19.672Z,97.90
2018-12-17T09:52:17.642Z,98.63
2018-12-17T09:53:17.629Z,98.00
2018-12-17T09:54:17.622Z,98.52
2018-12-17T09:55:17.625Z,98.32
2018-12-17T09:56:17.592Z,98.11
2018-12-17T09:57:17.581Z,98.11
2018-12-17T09:58:17.568Z,97.80
2018-12-17T09:59:17.560Z,97.80
2018-12-17T10:00:17.569Z,98.21
2018-12-17T10:01:17.540Z,98.32
2018-12-17T10:02:17.528Z,98.11
2018-12-17T10:03:17.512Z,98.11
2018-12-17T10:04:17.502Z,97.80
2018-12-17T10:05:17.492Z,98.11
2018-12-17T10:06:17.494Z,98.42
2018-12-17T10:07:17.470Z,98.42
2018-12-17T10:08:17.469Z,98.11
2018-12-17T10:09:17.450Z,98.32
2018-12-17T10:10:17.437Z,98.32
2018-12-17T10:11:17.423Z,98.11
2018-12-17T10:12:17.428Z,97.86
2018-12-17T10:13:17.415Z,98.07
2018-12-17T10:14:17.395Z,98.07
2018-12-17T10:15:17.387Z,98.42
2018-12-17T10:16:17.368Z,98.52
2018-12-17T10:17:17.355Z,98.52
2018-12-17T10:18:17.366Z,98.52
2018-12-17T10:19:17.334Z,98.63
2018-12-17T10:20:17.327Z,98.52
2018-12-17T10:21:17.328Z,99.35
2018-12-17T10:22:17.300Z,99.15
2018-12-17T10:23:17.288Z,99.35
2018-12-17T10:24:17.288Z,99.15
2018-12-17T10:25:17.268Z,99.25
2018-12-17T10:26:17.257Z,98.83
2018-12-17T10:27:17.253Z,98.94
2018-12-17T10:28:17.232Z,99.04
2018-12-17T10:29:17.238Z,99.25
2018-12-17T10:30:17.213Z,99.25
2018-12-17T10:31:17.200Z,99.15
2018-12-17T10:32:17.188Z,99.15
2018-12-17T10:33:17.185Z,99.82
2018-12-17T10:34:17.165Z,99.35
2018-12-17T10:35:17.168Z,99.21
2018-12-17T10:36:17.144Z,99.21
2018-12-17T10:37:17.132Z,99.77
2018-12-17T10:38:17.121Z,99.35
2018-12-17T10:39:17.124Z,99.21
2018-12-17T10:40:17.136Z,99.00
2018-12-17T10:41:17.088Z,98.94
2018-12-17T10:42:17.078Z,99.66
2018-12-17T10:43:17.064Z,99.56
2018-12-17T10:44:17.058Z,99.56
2018-12-17T10:45:17.044Z,99.66
2018-12-17T10:46:17.060Z,99.77
2018-12-17T10:47:17.029Z,99.99
2018-12-17T10:48:17.012Z,99.77
2018-12-17T10:49:17.000Z,99.15
2018-12-17T10:50:16.988Z,99.35
2018-12-17T10:51:16.976Z,99.46
2018-12-17T10:52:16.984Z,99.66
2018-12-17T10:53:16.957Z,99.87
2018-12-17T10:54:16.951Z,99.87
2018-12-17T10:55:16.932Z,99.99
2018-12-17T10:56:16.923Z,99.99
2018-12-17T10:57:16.938Z,99.99
2018-12-17T10:58:16.912Z,99.99
2018-12-17T10:59:16.958Z,99.99
2018-12-17T11:00:16.892Z,99.99
2018-12-17T11:01:16.877Z,99.99
2018-12-17T11:02:16.853Z,99.99
2018-12-17T11:03:16.844Z,99.98
2018-12-17T11:04:16.916Z,99.98
2018-12-17T11:05:16.824Z,99.99
2018-12-17T11:06:16.808Z,99.99
2018-12-17T11:07:16.804Z,99.99
2018-12-17T11:08:16.792Z,99.99
2018-12-17T11:09:16.783Z,99.99
2018-12-17T11:10:16.788Z,99.99
2018-12-17T11:11:16.755Z,99.98
2018-12-17T11:12:16.744Z,99.99
2018-12-17T11:13:16.731Z,99.99
2018-12-17T11:14:16.722Z,99.93
2018-12-17T11:15:16.723Z,99.99
2018-12-17T11:16:16.708Z,99.99
2018-12-17T11:17:16.684Z,99.99
2018-12-17T11:18:16.675Z,99.99
2018-12-17T11:19:16.663Z,99.05
2018-12-17T11:20:16.667Z,99.62
2018-12-17T11:21:16.639Z,99.52
2018-12-17T11:22:16.636Z,99.88
2018-12-17T11:23:16.616Z,99.93
2018-12-17T11:24:16.607Z,99.16
2018-12-17T11:25:16.596Z,99.47
2018-12-17T11:26:16.847Z,99.47
2018-12-17T11:27:16.572Z,98.90
2018-12-17T11:28:16.567Z,99.05
2018-12-17T11:29:16.552Z,99.16
2018-12-17T11:30:16.539Z,99.16
2018-12-17T11:31:16.531Z,99.16
2018-12-17T11:32:16.528Z,98.54
2018-12-17T11:33:16.507Z,98.43
2018-12-17T11:34:16.500Z,98.54
2018-12-17T11:35:16.487Z,98.74
2018-12-17T11:36:16.484Z,99.16
2018-12-17T11:37:16.480Z,99.05
2018-12-17T11:38:16.451Z,98.54
2018-12-17T11:39:16.435Z,98.43
2018-12-17T11:40:16.427Z,98.22
2018-12-17T11:41:16.416Z,97.60
2018-12-17T11:42:16.418Z,98.02
2018-12-17T11:43:16.399Z,97.50
2018-12-17T11:44:16.389Z,98.39
2018-12-17T11:45:16.371Z,98.08
2018-12-17T11:46:16.357Z,98.22
2018-12-17T11:47:16.350Z,98.12
2018-12-17T11:48:16.352Z,97.29
2018-12-17T11:49:16.324Z,98.02
2018-12-17T11:50:16.320Z,97.97
2018-12-17T11:51:16.310Z,97.45
2018-12-17T11:52:16.293Z,97.56
2018-12-17T11:53:16.284Z,97.31
2018-12-17T11:54:16.282Z,97.14
2018-12-17T11:55:16.258Z,97.00
2018-12-17T11:56:16.254Z,97.10
2018-12-17T11:57:16.235Z,96.89
2018-12-17T11:58:16.227Z,96.58
2018-12-17T11:59:16.215Z,96.75
2018-12-17T12:00:16.214Z,96.64
2018-12-17T12:01:16.190Z,95.92
2018-12-17T12:02:16.181Z,95.61
2018-12-17T12:03:16.171Z,95.54
2018-12-17T12:04:16.163Z,96.44
2018-12-17T12:05:16.144Z,96.64
2018-12-17T12:06:16.156Z,96.23
2018-12-17T12:07:16.126Z,96.02
2018-12-17T12:08:16.111Z,95.71
2018-12-17T12:09:16.101Z,95.50
2018-12-17T12:10:16.099Z,96.02
2018-12-17T12:11:16.075Z,96.48
2018-12-17T12:12:16.081Z,96.48
2018-12-17T12:13:16.057Z,96.58
2018-12-17T12:14:16.044Z,96.23
2018-12-17T12:15:16.031Z,96.85
2018-12-17T12:16:16.022Z,97.20
2018-12-17T12:17:16.019Z,96.89
2018-12-17T12:18:16.024Z,97.10
2018-12-17T12:19:15.989Z,97.10
2018-12-17T12:20:15.973Z,97.10
2018-12-17T12:21:15.965Z,97.62
2018-12-17T12:22:15.958Z,97.93
2018-12-17T12:23:15.950Z,97.93
2018-12-17T12:24:15.958Z,97.93
2018-12-17T12:25:15.919Z,98.44
2018-12-17T12:26:15.912Z,98.34
2018-12-17T12:27:15.894Z,98.03
2018-12-17T12:28:15.887Z,98.55
2018-12-17T12:29:15.895Z,98.65
2018-12-17T12:30:15.892Z,99.17
2018-12-17T12:31:15.851Z,99.07
2018-12-17T12:32:15.845Z,98.86
2018-12-17T12:33:15.829Z,99.07
2018-12-17T12:34:15.819Z,99.07
2018-12-17T12:35:15.811Z,99.58
2018-12-17T12:36:15.806Z,99.48
2018-12-17T12:37:15.783Z,99.17
2018-12-17T12:38:15.774Z,99.99
2018-12-17T12:39:15.766Z,99.99
2018-12-17T12:40:15.754Z,99.99
2018-12-17T12:41:15.774Z,99.99
2018-12-17T12:42:15.726Z,99.99
2018-12-17T12:43:15.714Z,99.99
2018-12-17T12:44:15.706Z,99.99
2018-12-17T12:45:15.700Z,99.99
2018-12-17T12:46:15.682Z,99.99
2018-12-17T12:47:15.703Z,99.99
2018-12-17T12:48:15.659Z,99.99
2018-12-17T12:49:15.650Z,99.99
2018-12-17T12:50:15.639Z,99.99
2018-12-17T12:51:15.628Z,99.99
2018-12-17T12:52:15.616Z,99.99